Time;durP1;ratioP1;P1;durP2;ratioP2;P2;SDS_P1;SDS_P2;PMS_P1;PMS_P2;Temp;Humidity;BMP_temperature;BMP_pressure;BME280_temperature;BME280_humidity;BME280_pressure;Samples;Min_cycle;Max_cycle;Signal;HPM_P1;HPM_P2
2021/10/08 00:01:50;;;;;;;144.93;29.92;;;9.30;99.90;;;;;;4943793;28;20031;-80
2021/10/08 00:04:16;;;;;;;121.90;28.55;;;9.30;99.90;;;;;;4945488;29;20028;-79
2021/10/08 00:06:41;;;;;;;146.32;30.80;;;9.30;99.90;;;;;;4944516;29;20031;-79
2021/10/08 00:09:07;;;;;;;96.88;24.70;;;9.30;99.90;;;;;;4951526;28;20031;-79
2021/10/08 00:11:33;;;;;;;171.30;33.92;;;9.20;99.90;;;;;;4956288;29;20035;-80
2021/10/08 00:13:58;;;;;;;195.18;32.45;;;9.20;99.90;;;;;;4953661;29;20028;-79
2021/10/08 00:16:24;;;;;;;195.15;32.13;;;9.20;99.90;;;;;;4949536;29;20039;-80
2021/10/08 00:18:50;;;;;;;137.88;31.08;;;9.20;99.90;;;;;;4954686;28;20039;-79
2021/10/08 00:21:16;;;;;;;180.38;30.08;;;9.10;99.90;;;;;;4947064;28;20543;-79
2021/10/08 00:23:41;;;;;;;322.88;41.42;;;9.10;99.90;;;;;;4952663;29;20027;-79
2021/10/08 00:26:07;;;;;;;121.57;28.10;;;9.10;99.90;;;;;;4954101;29;20042;-80
2021/10/08 00:28:33;;;;;;;119.85;27.73;;;9.10;99.90;;;;;;4948252;29;20051;-79
2021/10/08 00:31:00;;;;;;;348.60;39.30;;;9.10;99.90;;;;;;4943989;29;20533;-79
2021/10/08 00:33:25;;;;;;;109.38;30.48;;;9.10;99.90;;;;;;4941030;29;20027;-79
2021/10/08 00:35:51;;;;;;;117.80;30.02;;;9.10;99.90;;;;;;4950037;28;20031;-79
2021/10/08 00:38:16;;;;;;;131.85;28.85;;;9.10;99.90;;;;;;4937530;28;20059;-79
2021/10/08 00:40:45;;;;;;;132.25;29.98;;;9.10;99.90;;;;;;4958689;28;20530;-79
2021/10/08 00:43:11;;;;;;;124.22;27.77;;;9.10;99.90;;;;;;4955140;28;20114;-80
2021/10/08 00:45:37;;;;;;;145.48;29.98;;;9.10;99.90;;;;;;4955934;28;20150;-79
2021/10/08 00:48:08;;;;;;;254.82;33.50;;;9.10;99.90;;;;;;4955725;28;20039;-78
2021/10/08 00:50:38;;;;;;;142.20;29.80;;;9.10;99.90;;;;;;4941724;28;20032;-79
2021/10/08 00:53:05;;;;;;;140.45;26.40;;;9.10;99.90;;;;;;4938974;29;20066;-78
2021/10/08 00:55:31;;;;;;;286.52;36.67;;;9.10;99.90;;;;;;4938990;28;20035;-78
2021/10/08 00:57:59;;;;;;;154.55;29.48;;;9.10;99.90;;;;;;4936138;29;20028;-78
2021/10/08 01:00:24;;;;;;;246.27;34.05;;;9.10;99.90;;;;;;4946373;29;20428;-78
2021/10/08 01:02:50;;;;;;;196.73;30.73;;;9.10;99.90;;;;;;4954323;29;20066;-78
2021/10/08 01:05:15;;;;;;;120.85;28.65;;;9.10;99.90;;;;;;4946569;28;20103;-79
2021/10/08 01:07:42;;;;;;;116.32;29.02;;;9.00;99.90;;;;;;4948961;29;20039;-79
2021/10/08 01:10:08;;;;;;;244.70;35.15;;;9.00;99.90;;;;;;4951135;28;20086;-79
2021/10/08 01:12:34;;;;;;;119.45;30.48;;;9.00;99.90;;;;;;4936268;29;20481;-78
2021/10/08 01:15:00;;;;;;;161.35;31.20;;;9.00;99.90;;;;;;4938734;29;20054;-79
2021/10/08 01:17:26;;;;;;;231.35;34.17;;;9.00;99.90;;;;;;4954367;28;20436;-78
2021/10/08 01:19:52;;;;;;;147.63;30.27;;;9.00;99.90;;;;;;4953290;28;20015;-78
2021/10/08 01:22:18;;;;;;;335.77;37.85;;;9.00;99.90;;;;;;4954228;28;20029;-78
2021/10/08 01:24:43;;;;;;;165.10;33.15;;;8.90;99.90;;;;;;4953743;28;20100;-78
2021/10/08 01:27:09;;;;;;;135.63;32.33;;;8.90;99.90;;;;;;4951910;29;20046;-78
2021/10/08 01:29:56;;;;;;;269.27;39.10;;;8.90;99.90;;;;;;4949315;29;20027;-78
2021/10/08 01:32:23;;;;;;;197.93;33.17;;;9.00;99.90;;;;;;4936003;29;20039;-78
2021/10/08 01:34:49;;;;;;;112.00;29.48;;;9.00;99.90;;;;;;4939451;29;20491;-78
2021/10/08 01:37:16;;;;;;;340.85;38.83;;;8.90;99.90;;;;;;4953178;29;20127;-78
2021/10/08 01:39:42;;;;;;;215.70;33.50;;;8.90;99.90;;;;;;4953830;28;20046;-78
2021/10/08 01:42:08;;;;;;;118.68;27.08;;;8.90;99.90;;;;;;4952517;28;20551;-78
2021/10/08 01:44:34;;;;;;;113.10;30.30;;;8.90;99.90;;;;;;4955224;28;20151;-78
2021/10/08 01:46:59;;;;;;;140.32;30.75;;;8.90;99.90;;;;;;4946787;29;20425;-78
2021/10/08 01:49:25;;;;;;;198.25;31.67;;;8.90;99.90;;;;;;4969891;28;20102;-78
2021/10/08 01:51:50;;;;;;;205.55;31.67;;;8.90;99.90;;;;;;4953772;29;20043;-78
2021/10/08 01:54:16;;;;;;;250.40;31.55;;;8.90;99.90;;;;;;4953155;28;20038;-79
2021/10/08 01:56:44;;;;;;;117.43;28.20;;;8.90;99.90;;;;;;4953250;28;20053;-78
2021/10/08 01:59:11;;;;;;;194.48;29.95;;;8.80;99.90;;;;;;4948724;29;20032;-78
2021/10/08 02:01:36;;;;;;;94.35;26.27;;;8.80;99.90;;;;;;4943893;29;20043;-78
2021/10/08 02:04:02;;;;;;;138.98;26.90;;;8.80;99.90;;;;;;4954993;28;20533;-78
2021/10/08 02:06:28;;;;;;;110.93;25.00;;;8.80;99.90;;;;;;4953406;28;20042;-78
2021/10/08 02:08:54;;;;;;;263.13;30.85;;;8.70;99.90;;;;;;4954325;29;20031;-78
2021/10/08 02:11:19;;;;;;;174.82;29.38;;;8.70;99.90;;;;;;4953672;28;20074;-78
2021/10/08 02:13:45;;;;;;;316.67;36.28;;;8.70;99.90;;;;;;4951185;29;20024;-78
2021/10/08 02:16:11;;;;;;;184.65;31.08;;;8.60;99.90;;;;;;4952549;28;20039;-79
2021/10/08 02:18:36;;;;;;;173.48;30.50;;;8.60;99.90;;;;;;4953339;28;20408;-78
2021/10/08 02:21:03;;;;;;;162.02;31.42;;;8.60;99.90;;;;;;4953133;28;20028;-78
2021/10/08 02:23:28;;;;;;;216.13;35.30;;;8.60;99.90;;;;;;4951120;28;20028;-78
2021/10/08 02:25:54;;;;;;;162.60;28.15;;;8.60;99.90;;;;;;4952023;28;20027;-78
2021/10/08 02:28:20;;;;;;;134.30;27.55;;;8.60;99.90;;;;;;4951534;28;20031;-78
2021/10/08 02:30:46;;;;;;;196.07;28.13;;;8.60;99.90;;;;;;4950563;28;20166;-78
2021/10/08 02:33:11;;;;;;;122.88;31.02;;;8.60;99.90;;;;;;4944124;29;20051;-79
2021/10/08 02:35:37;;;;;;;312.38;36.15;;;8.50;99.90;;;;;;4941496;29;20067;-79
2021/10/08 02:38:03;;;;;;;109.82;30.20;;;8.50;99.90;;;;;;4951324;29;20043;-79
2021/10/08 02:40:28;;;;;;;172.00;31.80;;;8.50;99.90;;;;;;4952681;29;20183;-78
2021/10/08 02:42:54;;;;;;;118.82;29.88;;;8.50;99.90;;;;;;4951461;28;20046;-79
2021/10/08 02:45:20;;;;;;;161.75;30.02;;;8.50;99.90;;;;;;4937608;29;20407;-79
2021/10/08 02:47:46;;;;;;;165.73;29.88;;;8.60;99.90;;;;;;4944719;28;20027;-79
2021/10/08 02:50:12;;;;;;;171.00;30.63;;;8.50;99.90;;;;;;4952387;28;20027;-79
2021/10/08 02:52:38;;;;;;;221.27;33.78;;;8.50;99.90;;;;;;4944698;28;20035;-79
2021/10/08 02:55:07;;;;;;;147.10;30.13;;;8.50;99.90;;;;;;4938836;28;20250;-78
2021/10/08 02:57:35;;;;;;;197.35;31.27;;;8.50;99.90;;;;;;4950813;28;20035;-78
2021/10/08 03:00:01;;;;;;;107.15;26.70;;;8.50;99.90;;;;;;4946718;29;20034;-79
2021/10/08 03:02:27;;;;;;;165.52;30.58;;;8.50;99.90;;;;;;4952940;28;20392;-78
2021/10/08 03:04:52;;;;;;;127.10;30.63;;;8.40;99.90;;;;;;4943662;28;20027;-79
2021/10/08 03:07:18;;;;;;;196.05;32.80;;;8.40;99.90;;;;;;4946548;28;20028;-79
2021/10/08 03:09:43;;;;;;;132.50;29.77;;;8.40;99.90;;;;;;4950023;29;20031;-78
2021/10/08 03:12:09;;;;;;;142.63;28.13;;;8.40;99.90;;;;;;4945080;29;20035;-78
2021/10/08 03:14:34;;;;;;;98.30;25.55;;;8.40;99.90;;;;;;4946886;29;20046;-79
2021/10/08 03:17:00;;;;;;;130.95;26.63;;;8.40;99.90;;;;;;4943566;29;20470;-78
2021/10/08 03:19:25;;;;;;;215.18;33.47;;;8.50;99.90;;;;;;4949208;28;20400;-78
2021/10/08 03:21:51;;;;;;;186.90;31.45;;;8.40;99.90;;;;;;4947435;29;20094;-78
2021/10/08 03:24:16;;;;;;;301.73;33.15;;;8.30;99.90;;;;;;4949205;29;20030;-79
2021/10/08 03:26:42;;;;;;;137.43;27.50;;;8.40;99.90;;;;;;4952400;29;20027;-79
2021/10/08 03:29:08;;;;;;;100.13;25.63;;;8.30;99.90;;;;;;4951224;29;20074;-79
2021/10/08 03:31:33;;;;;;;87.63;25.73;;;8.30;99.90;;;;;;4953457;28;20035;-78
2021/10/08 03:33:59;;;;;;;261.48;32.45;;;8.30;99.90;;;;;;4952623;29;20399;-79
2021/10/08 03:36:30;;;;;;;178.00;28.08;;;8.30;99.90;;;;;;4952269;28;20117;-78
2021/10/08 03:38:56;;;;;;;162.65;29.25;;;8.30;99.90;;;;;;4957079;28;20129;-78
2021/10/08 03:41:22;;;;;;;183.45;30.35;;;8.20;99.90;;;;;;4957698;28;20488;-78
2021/10/08 03:43:48;;;;;;;174.60;28.77;;;8.20;99.90;;;;;;4955365;29;20031;-79
2021/10/08 03:46:14;;;;;;;292.77;31.88;;;8.20;99.90;;;;;;4955287;28;20054;-79
2021/10/08 03:51:27;;;;;;;234.65;30.63;;;8.10;99.90;;;;;;4951685;28;20030;-79
2021/10/08 03:53:52;;;;;;;125.90;24.83;;;8.10;99.90;;;;;;4959296;28;20543;-79
2021/10/08 03:56:18;;;;;;;98.07;24.50;;;8.00;99.90;;;;;;4944890;28;20126;-79
2021/10/08 03:58:44;;;;;;;144.75;27.33;;;8.00;99.90;;;;;;4940760;29;20023;-79
2021/10/08 04:01:09;;;;;;;182.80;30.42;;;7.90;99.90;;;;;;4940858;28;20063;-79
2021/10/08 04:03:35;;;;;;;136.27;28.02;;;7.90;99.90;;;;;;4955725;29;20460;-78
2021/10/08 04:06:00;;;;;;;152.30;29.35;;;7.90;99.90;;;;;;4953211;28;20032;-78
2021/10/08 04:08:26;;;;;;;180.80;28.65;;;7.90;99.90;;;;;;4951032;29;20401;-79
2021/10/08 04:10:51;;;;;;;82.88;24.80;;;7.90;99.90;;;;;;4947335;29;20471;-79
2021/10/08 04:13:17;;;;;;;142.63;29.00;;;7.90;99.90;;;;;;4958217;28;20023;-78
2021/10/08 04:15:43;;;;;;;79.68;22.27;;;7.90;99.90;;;;;;4957754;29;20039;-78
2021/10/08 04:18:11;;;;;;;213.48;30.38;;;7.90;99.90;;;;;;4956757;29;20447;-78
2021/10/08 04:20:37;;;;;;;171.32;27.65;;;7.90;99.90;;;;;;4958547;28;20460;-78
2021/10/08 04:23:03;;;;;;;123.45;25.73;;;7.90;99.90;;;;;;4958301;28;20027;-78
2021/10/08 04:25:29;;;;;;;194.88;26.85;;;7.90;99.90;;;;;;4958296;28;20078;-78
2021/10/08 04:28:09;;;;;;;85.85;24.50;;;7.90;99.90;;;;;;4958561;28;20055;-78
2021/10/08 04:30:36;;;;;;;242.23;29.83;;;7.80;99.90;;;;;;4958308;29;20368;-78
2021/10/08 04:33:01;;;;;;;174.40;28.40;;;7.80;99.90;;;;;;4942629;28;20027;-78
2021/10/08 04:35:27;;;;;;;120.00;29.13;;;7.70;99.90;;;;;;4954257;28;20423;-78
2021/10/08 04:37:52;;;;;;;316.20;35.97;;;7.80;99.90;;;;;;4958010;28;20039;-78
2021/10/08 04:40:22;;;;;;;86.35;25.58;;;7.80;99.90;;;;;;4964424;28;20043;-79
2021/10/08 04:42:54;;;;;;;232.63;30.35;;;7.70;99.90;;;;;;4965692;28;20522;-80
2021/10/08 04:45:20;;;;;;;209.73;28.77;;;7.70;99.90;;;;;;4958732;29;20092;-78
2021/10/08 04:47:46;;;;;;;115.22;24.85;;;7.70;99.90;;;;;;4959394;28;20109;-77
2021/10/08 04:50:11;;;;;;;217.32;32.45;;;7.70;99.90;;;;;;4974291;28;20028;-77
2021/10/08 04:52:37;;;;;;;119.32;24.98;;;7.70;99.90;;;;;;4959010;28;20062;-79
2021/10/08 04:55:03;;;;;;;116.75;26.77;;;7.60;99.90;;;;;;4957216;28;20510;-79
2021/10/08 04:57:28;;;;;;;158.65;28.20;;;7.60;99.90;;;;;;4959703;28;20045;-79
2021/10/08 04:59:55;;;;;;;234.18;31.20;;;7.60;99.90;;;;;;4958016;28;20500;-79
2021/10/08 05:02:32;;;;;;;119.72;26.73;;;7.60;99.90;;;;;;4952241;28;20094;-78
2021/10/08 05:05:26;;;;;;;66.13;22.67;;;7.60;99.90;;;;;;4959388;28;20074;-78
2021/10/08 05:07:55;;;;;;;140.07;24.80;;;7.60;99.90;;;;;;4945538;28;20117;-78
2021/10/08 05:10:22;;;;;;;138.15;29.77;;;7.60;99.90;;;;;;4950681;29;20443;-78
2021/10/08 05:12:48;;;;;;;323.13;35.78;;;7.60;99.90;;;;;;4955056;29;20023;-78
2021/10/08 05:15:14;;;;;;;130.20;25.17;;;7.50;99.90;;;;;;4955471;28;20500;-78
2021/10/08 05:17:39;;;;;;;209.07;29.00;;;7.60;99.90;;;;;;4956717;29;20043;-78
2021/10/08 05:20:05;;;;;;;125.15;26.25;;;7.50;99.90;;;;;;4952522;28;20031;-78
2021/10/08 05:22:31;;;;;;;84.60;25.38;;;7.50;99.90;;;;;;4956711;28;20396;-79
2021/10/08 05:24:56;;;;;;;105.60;24.35;;;7.50;99.90;;;;;;4942858;28;20044;-78
2021/10/08 05:27:22;;;;;;;115.55;26.73;;;7.50;99.90;;;;;;4940029;29;20020;-78
2021/10/08 05:30:06;;;;;;;127.40;25.50;;;7.40;99.90;;;;;;4949882;28;20128;-80
2021/10/08 05:32:32;;;;;;;151.30;28.23;;;7.40;99.90;;;;;;4944662;28;20024;-77
2021/10/08 05:34:57;;;;;;;263.83;32.35;;;7.40;99.90;;;;;;4946385;29;20559;-77
2021/10/08 05:37:23;;;;;;;143.85;26.90;;;7.40;99.90;;;;;;4954262;28;20055;-78
2021/10/08 05:39:48;;;;;;;105.07;25.92;;;7.40;99.90;;;;;;4952790;29;20047;-78
2021/10/08 05:42:14;;;;;;;228.25;31.80;;;7.40;99.90;;;;;;4936675;29;20066;-78
2021/10/08 05:44:39;;;;;;;277.90;33.42;;;7.40;99.90;;;;;;4945660;29;20026;-77
2021/10/08 05:47:05;;;;;;;189.65;30.00;;;7.40;99.90;;;;;;4946720;28;20039;-77
2021/10/08 05:49:30;;;;;;;154.90;24.67;;;7.40;99.90;;;;;;4939160;28;20028;-77
2021/10/08 05:51:56;;;;;;;163.52;25.95;;;7.40;99.90;;;;;;4941801;29;20035;-77
2021/10/08 05:54:22;;;;;;;138.57;25.67;;;7.30;99.90;;;;;;4937628;29;20760;-77
2021/10/08 05:56:47;;;;;;;295.35;34.03;;;7.30;99.90;;;;;;4935583;29;20044;-78
2021/10/08 05:59:13;;;;;;;190.85;31.00;;;7.30;99.90;;;;;;4937354;29;20496;-77
2021/10/08 06:01:38;;;;;;;108.53;26.35;;;7.30;99.90;;;;;;4935183;29;20048;-78
2021/10/08 06:04:06;;;;;;;90.65;24.55;;;7.30;99.90;;;;;;4949587;29;20023;-78
2021/10/08 06:06:32;;;;;;;141.88;27.80;;;7.30;99.90;;;;;;4945915;29;20031;-77
2021/10/08 06:08:59;;;;;;;77.85;22.85;;;7.30;99.90;;;;;;4946016;28;20020;-78
2021/10/08 06:11:24;;;;;;;194.35;30.75;;;7.30;99.90;;;;;;4947656;28;20066;-78
2021/10/08 06:13:50;;;;;;;253.00;31.73;;;7.30;99.90;;;;;;4952568;29;20034;-79
2021/10/08 06:16:16;;;;;;;121.65;25.83;;;7.30;99.90;;;;;;4939399;29;20043;-78
2021/10/08 06:18:41;;;;;;;90.35;27.23;;;7.30;99.90;;;;;;4938254;28;20384;-78
2021/10/08 06:21:07;;;;;;;133.48;27.92;;;7.40;99.90;;;;;;4946605;28;20023;-78
2021/10/08 06:23:32;;;;;;;95.55;26.08;;;7.40;99.90;;;;;;4947725;29;20097;-78
2021/10/08 06:25:58;;;;;;;91.63;26.90;;;7.40;99.90;;;;;;4948891;29;20035;-78
2021/10/08 06:28:24;;;;;;;283.40;31.48;;;7.50;99.90;;;;;;4957280;28;20087;-79
2021/10/08 06:30:50;;;;;;;92.57;26.67;;;7.50;99.90;;;;;;4951385;29;20059;-78
2021/10/08 06:33:16;;;;;;;116.05;27.35;;;7.50;99.90;;;;;;4948478;28;20062;-79
2021/10/08 06:35:42;;;;;;;180.48;32.60;;;7.50;99.90;;;;;;4949022;29;20032;-78
2021/10/08 06:38:09;;;;;;;73.50;28.50;;;7.50;99.90;;;;;;4945671;28;20039;-79
2021/10/08 06:40:36;;;;;;;239.77;35.55;;;7.50;99.90;;;;;;4943169;29;20044;-79
2021/10/08 06:43:02;;;;;;;141.23;30.52;;;7.60;99.90;;;;;;4935920;29;20547;-78
2021/10/08 06:45:28;;;;;;;154.25;32.72;;;7.60;99.90;;;;;;4954193;29;20062;-78
2021/10/08 06:47:54;;;;;;;181.70;34.58;;;7.60;99.90;;;;;;4948162;28;20038;-78
2021/10/08 06:50:20;;;;;;;131.70;28.85;;;7.70;99.90;;;;;;4949444;29;20034;-78
2021/10/08 06:52:45;;;;;;;96.95;26.35;;;7.70;99.90;;;;;;4952749;29;20032;-79
2021/10/08 06:55:11;;;;;;;179.20;31.60;;;7.70;99.90;;;;;;4936845;29;20373;-79
2021/10/08 06:57:36;;;;;;;122.72;31.58;;;7.70;99.90;;;;;;4953619;29;20062;-79
2021/10/08 07:00:04;;;;;;;151.30;27.52;;;7.70;99.90;;;;;;4947582;29;20038;-78
2021/10/08 07:02:30;;;;;;;117.65;28.98;;;7.70;99.90;;;;;;4950347;28;20070;-78
2021/10/08 07:04:55;;;;;;;85.97;25.30;;;7.80;99.90;;;;;;4952852;28;20059;-78
2021/10/08 07:07:21;;;;;;;139.82;29.90;;;7.80;99.90;;;;;;4948640;29;20042;-79
2021/10/08 07:09:46;;;;;;;160.68;28.17;;;7.80;99.90;;;;;;4951690;28;20035;-80
2021/10/08 07:12:12;;;;;;;132.40;31.33;;;7.90;99.90;;;;;;4949074;28;20114;-80
2021/10/08 07:14:38;;;;;;;179.77;32.85;;;7.90;99.90;;;;;;4968345;28;20062;-79
2021/10/08 07:17:03;;;;;;;146.63;30.08;;;7.90;99.90;;;;;;4951347;28;20105;-80
2021/10/08 07:19:30;;;;;;;80.82;27.20;;;8.00;99.90;;;;;;4946230;28;20472;-79
2021/10/08 07:21:56;;;;;;;226.40;35.25;;;8.00;99.90;;;;;;4953482;29;20031;-79
2021/10/08 07:24:22;;;;;;;93.25;29.73;;;8.00;99.90;;;;;;4943001;28;20023;-79
2021/10/08 07:26:48;;;;;;;169.52;28.95;;;8.00;99.90;;;;;;4946510;29;20038;-80
2021/10/08 07:29:14;;;;;;;304.73;40.28;;;8.10;99.90;;;;;;4964798;28;20035;-79
2021/10/08 07:31:39;;;;;;;183.70;30.38;;;8.10;99.90;;;;;;4950161;29;20062;-79
2021/10/08 07:34:05;;;;;;;104.60;28.73;;;8.20;99.90;;;;;;4948035;29;20027;-79
2021/10/08 07:36:30;;;;;;;162.75;31.00;;;8.20;99.90;;;;;;4938658;29;20039;-80
2021/10/08 07:38:56;;;;;;;144.57;29.73;;;8.30;99.90;;;;;;4946489;28;20036;-80
2021/10/08 07:41:23;;;;;;;147.70;32.05;;;8.30;99.90;;;;;;4950525;28;20403;-80
2021/10/08 07:43:49;;;;;;;275.08;38.05;;;8.30;99.90;;;;;;4948432;28;20028;-81
2021/10/08 07:46:15;;;;;;;193.32;35.22;;;8.40;99.90;;;;;;4953695;28;20031;-81
2021/10/08 07:48:40;;;;;;;105.10;28.85;;;8.40;99.90;;;;;;4949481;29;20020;-80
2021/10/08 07:51:07;;;;;;;139.90;31.15;;;8.40;99.90;;;;;;4948968;29;20060;-80
2021/10/08 07:53:33;;;;;;;111.25;30.77;;;8.40;99.90;;;;;;4945674;28;20549;-80
2021/10/08 07:56:00;;;;;;;124.82;32.25;;;8.50;99.90;;;;;;4951179;28;20034;-81
2021/10/08 07:58:40;;;;;;;133.38;33.20;;;8.50;99.90;;;;;;4945890;29;20036;-81
2021/10/08 08:01:11;;;;;;;109.30;29.65;;;8.50;99.90;;;;;;4940978;28;20027;-82
2021/10/08 08:03:38;;;;;;;133.25;31.58;;;8.50;99.90;;;;;;4945645;28;20035;-80
2021/10/08 08:06:24;;;;;;;503.77;50.88;;;8.60;99.90;;;;;;4949561;28;20035;-80
2021/10/08 08:08:55;;;;;;;170.55;34.35;;;8.70;99.90;;;;;;4960577;28;20575;-81
2021/10/08 08:11:21;;;;;;;85.78;28.75;;;8.70;99.90;;;;;;4942251;28;20035;-78
2021/10/08 08:13:47;;;;;;;108.22;30.33;;;8.90;99.90;;;;;;4941672;28;20036;-79
2021/10/08 08:16:12;;;;;;;157.57;37.60;;;8.90;99.90;;;;;;4947565;29;20697;-79
2021/10/08 08:18:38;;;;;;;162.23;33.15;;;8.90;99.90;;;;;;4945361;28;20042;-80
2021/10/08 08:21:04;;;;;;;82.45;30.13;;;9.00;99.90;;;;;;4942947;28;20024;-79
2021/10/08 08:23:30;;;;;;;138.85;32.15;;;9.10;99.90;;;;;;4953766;28;20115;-79
2021/10/08 08:25:55;;;;;;;95.57;31.33;;;9.20;99.90;;;;;;4950837;28;20027;-80
2021/10/08 08:28:22;;;;;;;136.98;33.95;;;9.30;99.90;;;;;;4952548;29;20027;-80
2021/10/08 08:30:48;;;;;;;115.00;34.03;;;9.40;99.90;;;;;;4945229;28;20063;-79
2021/10/08 08:33:14;;;;;;;128.95;31.33;;;9.50;99.90;;;;;;4964152;28;20030;-79
2021/10/08 08:35:40;;;;;;;101.95;30.67;;;9.60;99.90;;;;;;4953572;29;20031;-79
2021/10/08 08:38:05;;;;;;;69.32;26.83;;;9.70;99.90;;;;;;4946416;29;20035;-79
2021/10/08 08:40:31;;;;;;;109.68;31.13;;;9.70;99.90;;;;;;4948255;29;20098;-79
2021/10/08 08:42:58;;;;;;;67.80;27.83;;;9.70;99.90;;;;;;4949916;29;20051;-79
2021/10/08 08:45:24;;;;;;;78.15;26.08;;;9.80;99.90;;;;;;4955611;28;20023;-78
2021/10/08 08:48:16;;;;;;;502.75;49.90;;;9.90;99.90;;;;;;4957015;28;20035;-79
2021/10/08 08:50:46;;;;;;;252.02;40.03;;;9.90;99.90;;;;;;4948482;28;20077;-79
2021/10/08 08:53:13;;;;;;;60.13;27.65;;;10.10;99.90;;;;;;4955616;28;20476;-80
2021/10/08 08:55:38;;;;;;;67.65;27.25;;;10.20;99.90;;;;;;4951510;28;20035;-79
2021/10/08 08:58:04;;;;;;;65.05;29.35;;;10.30;99.90;;;;;;4955509;29;20051;-79
2021/10/08 09:00:30;;;;;;;73.50;29.38;;;10.30;99.90;;;;;;4944666;29;20035;-79
2021/10/08 09:02:59;;;;;;;81.18;27.00;;;10.30;99.90;;;;;;4944752;28;20039;-80
2021/10/08 09:05:34;;;;;;;82.22;29.38;;;10.30;99.90;;;;;;4952942;28;20059;-79
2021/10/08 09:08:07;;;;;;;71.22;29.05;;;10.20;99.90;;;;;;4952942;28;20086;-78
2021/10/08 09:10:38;;;;;;;315.65;45.08;;;10.30;99.90;;;;;;4948602;29;20035;-79
2021/10/08 09:13:05;;;;;;;73.32;31.50;;;10.40;99.90;;;;;;4965943;28;20105;-79
2021/10/08 09:15:48;;;;;;;117.00;37.60;;;10.60;99.90;;;;;;4949552;28;20122;-80
2021/10/08 09:18:16;;;;;;;80.07;35.97;;;10.70;99.90;;;;;;4942219;29;20394;-81
2021/10/08 09:21:11;;;;;;;91.47;37.58;;;10.90;99.90;;;;;;4954611;28;20034;-80
2021/10/08 09:23:47;;;;;;;79.75;39.10;;;11.10;99.90;;;;;;4949685;29;20464;-80
2021/10/08 09:26:21;;;;;;;80.05;38.20;;;11.10;99.90;;;;;;4956403;29;20122;-80
2021/10/08 09:29:02;;;;;;;85.03;32.88;;;11.10;99.90;;;;;;4952076;28;20399;-80
2021/10/08 09:31:41;;;;;;;175.52;45.20;;;11.30;99.90;;;;;;4954051;29;20031;-80
2021/10/08 09:34:14;;;;;;;88.40;39.90;;;11.40;99.90;;;;;;4953309;28;20383;-80
2021/10/08 09:36:42;;;;;;;108.93;42.15;;;11.40;99.90;;;;;;4955993;29;20098;-80
2021/10/08 09:39:26;;;;;;;99.63;45.15;;;11.40;99.90;;;;;;4956938;28;20070;-80
2021/10/08 09:42:04;;;;;;;100.38;45.78;;;11.60;99.90;;;;;;4957729;28;20388;-80
2021/10/08 09:44:32;;;;;;;87.63;45.15;;;11.70;99.90;;;;;;4957592;28;20028;-79
2021/10/08 09:47:21;;;;;;;86.60;42.83;;;11.80;99.90;;;;;;4957536;28;20031;-81
2021/10/08 09:49:48;;;;;;;89.90;45.50;;;12.00;99.90;;;;;;4957063;28;20038;-80
2021/10/08 09:52:19;;;;;;;88.28;45.33;;;11.90;99.90;;;;;;4957017;28;20125;-80
2021/10/08 09:54:56;;;;;;;93.05;45.97;;;12.00;99.90;;;;;;4957085;28;20027;-80
2021/10/08 09:57:22;;;;;;;86.43;45.00;;;11.90;99.90;;;;;;4956914;28;20137;-80
2021/10/08 09:59:50;;;;;;;77.97;41.53;;;11.90;99.90;;;;;;4956360;28;20027;-81
2021/10/08 10:02:17;;;;;;;81.40;42.30;;;11.90;99.90;;;;;;4957141;28;20031;-80
2021/10/08 10:04:48;;;;;;;80.72;42.33;;;12.00;99.90;;;;;;4957107;28;20035;-80
2021/10/08 10:07:19;;;;;;;85.90;43.80;;;12.10;99.90;;;;;;4956956;28;20035;-80
2021/10/08 10:09:45;;;;;;;82.18;44.05;;;12.10;99.90;;;;;;4957091;28;20023;-80
2021/10/08 10:12:13;;;;;;;81.88;43.30;;;12.30;99.90;;;;;;4956857;28;20102;-80
2021/10/08 10:14:40;;;;;;;77.82;42.78;;;12.40;99.90;;;;;;4944092;29;20035;-80
2021/10/08 10:17:07;;;;;;;75.32;40.80;;;12.50;99.90;;;;;;4941244;29;20034;-80
2021/10/08 10:19:37;;;;;;;79.15;42.13;;;12.60;99.90;;;;;;4955101;28;20043;-81
2021/10/08 10:22:03;;;;;;;79.93;41.35;;;12.70;99.90;;;;;;4953176;28;20070;-80
2021/10/08 10:24:29;;;;;;;85.60;43.15;;;12.80;99.90;;;;;;4946622;29;20022;-80
2021/10/08 10:26:55;;;;;;;81.82;43.50;;;12.90;99.90;;;;;;4941240;28;20089;-81
2021/10/08 10:29:21;;;;;;;74.88;40.67;;;13.00;99.90;;;;;;4956874;28;20118;-81
2021/10/08 10:31:48;;;;;;;78.35;42.67;;;13.10;99.90;;;;;;4956248;28;20054;-81
2021/10/08 10:34:14;;;;;;;68.65;40.78;;;13.20;99.90;;;;;;4956747;28;20035;-81
2021/10/08 10:36:42;;;;;;;68.88;41.00;;;13.20;99.90;;;;;;4956253;28;20035;-82
2021/10/08 10:39:16;;;;;;;72.00;40.70;;;13.40;99.90;;;;;;4936537;29;20063;-81
2021/10/08 10:42:14;;;;;;;67.38;39.05;;;13.50;99.90;;;;;;4954654;29;20032;-82
2021/10/08 10:45:07;;;;;;;70.25;39.53;;;13.60;99.90;;;;;;4956627;28;20031;-81
2021/10/08 10:47:35;;;;;;;69.28;38.42;;;13.70;99.90;;;;;;4955922;28;20023;-81
2021/10/08 10:50:24;;;;;;;71.60;38.15;;;13.70;99.90;;;;;;4955395;28;20105;-81
2021/10/08 10:52:56;;;;;;;77.90;41.30;;;13.80;99.90;;;;;;4956568;28;20019;-81
2021/10/08 10:55:23;;;;;;;69.20;39.33;;;13.80;99.90;;;;;;4956110;28;20055;-82
2021/10/08 10:57:55;;;;;;;68.45;41.70;;;13.80;99.90;;;;;;4956697;28;20075;-81
2021/10/08 11:00:33;;;;;;;73.72;41.38;;;13.80;99.90;;;;;;4956011;28;20039;-81
2021/10/08 11:03:22;;;;;;;62.03;36.10;;;13.90;99.90;;;;;;4956096;28;20034;-81
2021/10/08 11:06:07;;;;;;;61.38;37.22;;;14.00;99.90;;;;;;4937255;28;20023;-81
2021/10/08 11:08:34;;;;;;;61.78;37.40;;;14.10;99.90;;;;;;4937262;29;20504;-82
2021/10/08 11:11:02;;;;;;;58.47;34.42;;;14.10;99.90;;;;;;4937714;29;20095;-81
2021/10/08 11:13:30;;;;;;;59.55;36.92;;;14.20;99.90;;;;;;4955468;29;20027;-81
2021/10/08 11:15:58;;;;;;;56.65;32.92;;;14.20;99.90;;;;;;4956209;28;20031;-82
2021/10/08 11:18:39;;;;;;;50.70;33.80;;;14.30;99.90;;;;;;4954539;28;20074;-81
2021/10/08 11:21:05;;;;;;;53.55;33.80;;;14.30;99.90;;;;;;4949745;29;20055;-81
2021/10/08 11:23:36;;;;;;;55.90;33.08;;;14.40;99.90;;;;;;4956176;28;20491;-81
2021/10/08 11:26:06;;;;;;;52.25;32.90;;;14.50;99.90;;;;;;4955140;28;20058;-81
2021/10/08 11:28:35;;;;;;;50.65;30.45;;;14.50;99.90;;;;;;4956128;28;20110;-82
2021/10/08 11:31:03;;;;;;;49.60;29.15;;;14.60;99.90;;;;;;4955989;28;20031;-81
2021/10/08 11:33:44;;;;;;;46.25;30.17;;;14.70;99.90;;;;;;4955482;28;20032;-81
2021/10/08 11:36:29;;;;;;;44.78;29.33;;;14.70;99.90;;;;;;4955861;29;20045;-81
2021/10/08 11:39:15;;;;;;;43.50;27.73;;;14.70;99.90;;;;;;4955972;28;20043;-81
2021/10/08 11:41:43;;;;;;;42.85;27.25;;;14.90;99.90;;;;;;4955905;28;20030;-82
2021/10/08 11:44:20;;;;;;;41.55;25.58;;;14.90;99.90;;;;;;4955550;28;20030;-81
2021/10/08 11:47:40;;;;;;;42.85;26.35;;;15.00;99.90;;;;;;4955340;28;20058;-82
2021/10/08 11:52:43;;;;;;;43.30;27.98;;;15.00;99.90;;;;;;4937252;29;20032;-83
2021/10/08 11:55:11;;;;;;;40.80;26.75;;;15.00;99.90;;;;;;4936798;29;20086;-82
2021/10/08 11:57:52;;;;;;;39.67;26.35;;;15.10;99.90;;;;;;4937047;29;20167;-82
2021/10/08 12:00:19;;;;;;;40.28;26.77;;;15.10;99.90;;;;;;4942678;29;20023;-81
2021/10/08 12:02:57;;;;;;;40.67;25.73;;;15.10;99.90;;;;;;4949165;28;20047;-82
2021/10/08 12:05:23;;;;;;;39.78;26.02;;;15.20;99.90;;;;;;4939982;29;20094;-81
2021/10/08 12:08:01;;;;;;;39.00;24.15;;;15.30;99.90;;;;;;4940487;29;20179;-82
2021/10/08 12:10:27;;;;;;;37.88;25.67;;;15.40;99.90;;;;;;4941009;29;20436;-82
2021/10/08 12:12:58;;;;;;;36.50;24.60;;;15.40;99.90;;;;;;4944562;29;20035;-82
2021/10/08 12:15:25;;;;;;;40.47;23.52;;;15.50;99.90;;;;;;4959488;28;20027;-81
2021/10/08 12:17:52;;;;;;;36.40;23.63;;;15.60;99.90;;;;;;4959467;29;20046;-82
2021/10/08 12:20:26;;;;;;;33.78;22.15;;;15.60;99.90;;;;;;4958948;28;20027;-81
2021/10/08 12:23:17;;;;;;;29.35;19.80;;;15.70;99.90;;;;;;4958602;28;20032;-82
2021/10/08 12:25:44;;;;;;;27.77;17.70;;;15.80;99.90;;;;;;4957721;29;20019;-82
2021/10/08 12:28:10;;;;;;;28.45;20.17;;;16.00;99.90;;;;;;4958715;28;20030;-82
2021/10/08 12:30:57;;;;;;;23.08;16.25;;;16.00;99.30;;;;;;4956249;29;20110;-82
2021/10/08 12:33:38;;;;;;;19.02;13.38;;;16.10;98.90;;;;;;4957723;28;20059;-82
2021/10/08 12:36:31;;;;;;;18.38;12.00;;;16.10;98.50;;;;;;4958925;28;20129;-81
2021/10/08 12:39:16;;;;;;;19.05;12.68;;;16.20;98.30;;;;;;4958346;28;20035;-82
2021/10/08 12:42:03;;;;;;;13.75;9.38;;;16.20;97.80;;;;;;4959252;28;20415;-82